Sa Cabaneta, Spain

1:20 PM CEST on May 24, 2015 (GMT +0200)
Sa Cabaneta | | Change Station
CLOSE
Current Station
Personal Weather Station
Location: Marratx, ILLES BALEARS
Elevation: 479 ft
Nearby Weather Stations

Elev 479 ft 39.62 °N, 2.76 °E | Updated 11 minutes ago

Scattered Clouds
Scattered Clouds
71.8 °F
Feels Like 77 °F
N
9.0
Wind Variable Wind from South
Gusts 13.0 mph

Today
High -- | Low -- °F
--% Chance of Precip.
Yesterday
High -- | Low -- °F
Precip. -- in
6:27 AM 9:04 PM
Waxing Crescent, 38% visible
Pressure 30.04 in
Visibility 6.2 miles
Clouds Few 1500 ft
Scattered Clouds 3000 ft
Heat Index 77 °F
Dew Point 45 °F
Humidity 39%
Rainfall 0.00 in
Snow Depth Not available.
UV 10 out of 12
Pollen Not available.
Air Quality Not available.
Flu Activity Not available.
METAR LEPA 241100Z 24009KT 210V280 9999 FEW015 SCT030 23/07 Q1017 NOSIG

More Conditions Fewer Conditions

Pressure 30.04 in
Visibility 6.2 miles
Clouds Few 1500 ft
Scattered Clouds 3000 ft
Heat Index 77 °F
Dew Point 45 °F
Humidity 39%
Rainfall 0.00 in
Snow Depth Not available.
UV 10 out of 12
Pollen Not available.
Air Quality Not available.
Flu Activity Not available.
METAR LEPA 241100Z 24009KT 210V280 9999 FEW015 SCT030 23/07 Q1017 NOSIG

More Conditions Fewer Conditions

10-Day Weather Forecast

Almanac

Astronomy

May. 24, 2015 Rise Set
Actual Time
Civil Twilight
Nautical Twilight
Astronomical Twilight
Moon
Length of Visible Light
Length of Day
Tomorrow will be .
, % of the Moon is Illuminated

Today's Extremes

Country Highs Country Lows

Community

WunderPhotos

Upload Photos

1,823,715 photos uploaded!

WunderBlogs® & News

Nearby

Air Quality

  Air Quality AQ Index Pollutant
Not available.

Snow Depth

Station Depth Elevation

Earthquake Activity

City Distance Mag. Time & Date
Minimum magnitude displayed is 2.5.

Coastal Water Temperatures

Place Temperature

Stations

Nearby Weather Stations

Station Location Temp. Windchill Dew Point Humidity Wind Precip. Elev Updated Type